Pagrindinis puslapis
METAR-TAF:

METAR-TAF

Oro uostai :

Abumusa, Iranas

platuma: 25-52-33N, ilguma: 055-02-01E, Aukštis: 7 m

Dabartinis oras

Ataskaita buvo paskelbta 13 minutes, ne 11:00 UTC
Vėjas 16 kt iš Šiaurės Rytų
Temperatūra 15°C
Drėgmė 88%
Slėgis 1015 hPa
Matomumas: 2000 m
Mažai debesys ne aukštis 2500 ft, Liūtiniai kamuoliniai debesys.
Išsisklaidę debesys ne aukštis 3000 ft
Apsiniaukę ne aukštis 8000 ft
lietus

METAR: OIBA 271100Z 05016KT 2000 +SHRA FEW025CB SCT030 OVC080 15/13 Q1015

Laikas: 14:43 (11:13 UTC)


TAF: trūkstamas

Orai ataskaitas ir orų prognozės (METAR, TAF).

turimą stotys yra geltonos ir raudonos taškus žemėlapyje.

Perkelti pele per norėdami pamatyti stoties vardą.

Tada spustelėkite, norėdami matyti oro stebėjimo ir prognozės.

Norėdami pakeisti žemėlapį: spustelėkite ant žalios mygtukų su juodo kryžiaus žemyn,; žalią mygtuką su brūkšneliu, jei norite nutolinti; arba žalių rodyklių gretimoms žemėlapius.


METAR-TAF: